createdAt,value
2022-12-25T00:00:24.393Z,4.00
2022-12-25T00:01:23.757Z,3.80
2022-12-25T00:01:57.541Z,3.80
2022-12-25T00:02:31.498Z,3.80
2022-12-25T00:03:06.727Z,4.10
2022-12-25T00:03:41.114Z,4.00
2022-12-25T00:04:16.115Z,4.40
2022-12-25T00:04:50.730Z,4.30
2022-12-25T00:05:25.782Z,3.90
2022-12-25T00:06:00.691Z,3.70
2022-12-25T00:06:35.988Z,4.20
2022-12-25T00:07:10.235Z,4.30
2022-12-25T00:07:45.870Z,4.10
2022-12-25T00:08:20.549Z,3.60
2022-12-25T00:08:55.818Z,3.90
2022-12-25T00:09:31.595Z,3.80
2022-12-25T00:10:06.863Z,4.00
2022-12-25T00:10:45.214Z,3.80
2022-12-25T00:11:22.261Z,3.90
2022-12-25T00:11:57.986Z,3.90
2022-12-25T00:12:36.113Z,4.10
2022-12-25T00:13:12.102Z,4.00
2022-12-25T00:13:49.364Z,3.90
2022-12-25T00:14:24.847Z,3.50
2022-12-25T00:15:00.818Z,3.90
2022-12-25T00:15:36.738Z,4.00
2022-12-25T00:16:22.667Z,3.90
2022-12-25T00:16:57.128Z,3.80
2022-12-25T00:17:33.735Z,4.20
2022-12-25T00:18:08.033Z,4.00
2022-12-25T00:18:43.746Z,4.10
2022-12-25T00:19:19.556Z,4.10
2022-12-25T00:19:54.086Z,4.40
2022-12-25T00:20:30.439Z,4.30
2022-12-25T00:21:07.673Z,4.50
2022-12-25T00:21:43.465Z,4.00
2022-12-25T00:22:19.645Z,4.10
2022-12-25T00:22:54.512Z,4.40
2022-12-25T00:23:31.564Z,4.10
2022-12-25T00:24:07.695Z,4.20
2022-12-25T00:24:44.161Z,4.30
2022-12-25T00:25:19.058Z,8.30
2022-12-25T00:25:55.662Z,5.90
2022-12-25T00:26:31.508Z,4.80
2022-12-25T00:27:06.706Z,3.90
2022-12-25T00:27:42.397Z,4.20
2022-12-25T00:28:18.426Z,5.10
2022-12-25T00:28:55.144Z,4.50
2022-12-25T00:29:31.521Z,3.90
2022-12-25T00:30:14.125Z,3.80
2022-12-25T00:30:49.755Z,4.10
2022-12-25T00:31:27.569Z,4.60
2022-12-25T00:32:03.866Z,4.10
2022-12-25T00:32:39.818Z,4.30
2022-12-25T00:33:16.168Z,4.40
2022-12-25T00:33:53.775Z,3.80
2022-12-25T00:34:28.648Z,4.00
2022-12-25T00:35:06.691Z,3.70
2022-12-25T00:35:43.100Z,3.80
2022-12-25T00:36:21.000Z,4.10
2022-12-25T00:36:57.261Z,4.00
2022-12-25T00:37:31.970Z,4.90
2022-12-25T00:38:07.383Z,5.00
2022-12-25T00:38:44.110Z,4.00
2022-12-25T00:39:18.280Z,4.50
2022-12-25T00:39:54.611Z,7.20
2022-12-25T00:40:28.933Z,4.60
2022-12-25T00:41:16.334Z,5.20
2022-12-25T00:42:11.028Z,4.40
2022-12-25T00:42:47.320Z,4.20
2022-12-25T00:43:23.776Z,4.60
2022-12-25T00:43:58.078Z,4.50
2022-12-25T00:44:33.630Z,4.40
2022-12-25T00:45:09.696Z,5.10
2022-12-25T00:45:44.323Z,4.20
2022-12-25T00:46:20.338Z,4.40
2022-12-25T00:46:56.662Z,3.80
2022-12-25T00:47:31.283Z,4.10
2022-12-25T00:48:07.441Z,3.80
2022-12-25T00:48:45.489Z,4.10
2022-12-25T00:49:24.989Z,3.90
2022-12-25T00:49:59.961Z,4.00
2022-12-25T00:50:35.494Z,4.50
2022-12-25T00:51:13.415Z,4.20
2022-12-25T00:51:50.656Z,4.50
2022-12-25T00:52:26.729Z,4.50
2022-12-25T00:53:02.261Z,4.60
2022-12-25T00:53:37.571Z,4.30
2022-12-25T00:54:13.215Z,4.80
2022-12-25T00:54:49.270Z,4.50
2022-12-25T00:55:24.791Z,4.00
2022-12-25T00:56:03.819Z,4.40
2022-12-25T00:56:38.686Z,4.00
2022-12-25T00:57:13.929Z,4.60
2022-12-25T00:57:50.006Z,4.40
2022-12-25T00:58:26.525Z,3.90
2022-12-25T00:59:04.608Z,4.00
2022-12-25T00:59:39.530Z,4.70
2022-12-25T01:00:15.883Z,4.00
2022-12-25T01:00:52.359Z,3.80
2022-12-25T01:01:27.035Z,3.90
2022-12-25T01:02:24.516Z,4.30
2022-12-25T01:02:58.927Z,4.00
2022-12-25T01:03:33.596Z,4.50
2022-12-25T01:04:09.599Z,4.40
2022-12-25T01:04:43.688Z,4.00
2022-12-25T01:05:19.009Z,3.80
2022-12-25T01:05:58.720Z,4.00
2022-12-25T01:06:34.452Z,3.90
2022-12-25T01:07:09.818Z,3.80
2022-12-25T01:07:46.029Z,4.10
2022-12-25T01:08:21.579Z,3.70
2022-12-25T01:09:17.578Z,3.80
2022-12-25T01:10:11.167Z,4.00
2022-12-25T01:10:58.333Z,3.90
2022-12-25T01:11:34.187Z,4.00
2022-12-25T01:12:10.769Z,3.80
2022-12-25T01:12:47.043Z,4.30
2022-12-25T01:13:22.968Z,3.70
2022-12-25T01:13:59.407Z,3.70
2022-12-25T01:14:34.537Z,3.70
2022-12-25T01:15:12.046Z,4.00
2022-12-25T01:15:47.259Z,3.60
2022-12-25T01:16:22.136Z,3.70
2022-12-25T01:16:57.782Z,3.90
2022-12-25T01:17:32.205Z,3.60
2022-12-25T01:18:08.676Z,3.40
2022-12-25T01:18:47.359Z,3.80
2022-12-25T01:19:22.989Z,3.80
2022-12-25T01:19:57.677Z,4.20
2022-12-25T01:20:33.398Z,4.00
2022-12-25T01:21:12.909Z,3.90
2022-12-25T01:21:49.384Z,3.80
2022-12-25T01:22:25.601Z,3.80
2022-12-25T01:23:02.069Z,3.60
2022-12-25T01:23:39.848Z,3.70
2022-12-25T01:24:14.880Z,4.10
2022-12-25T01:24:51.259Z,4.10
2022-12-25T01:25:25.225Z,4.40
2022-12-25T01:26:13.019Z,4.20
2022-12-25T01:26:48.571Z,3.90
2022-12-25T01:27:24.335Z,4.10
2022-12-25T01:27:58.930Z,4.10
2022-12-25T01:28:33.826Z,4.10
2022-12-25T01:29:09.909Z,4.00
2022-12-25T01:29:44.811Z,4.30
2022-12-25T01:30:21.450Z,5.30
2022-12-25T01:30:56.341Z,4.10
2022-12-25T01:31:32.623Z,4.10
2022-12-25T01:32:08.864Z,4.20
2022-12-25T01:32:45.536Z,4.20
2022-12-25T01:33:21.176Z,4.30
2022-12-25T01:33:56.411Z,4.00
2022-12-25T01:34:33.133Z,4.10
2022-12-25T01:35:08.378Z,4.20
2022-12-25T01:35:43.868Z,4.30
2022-12-25T01:36:22.274Z,4.60
2022-12-25T01:36:58.313Z,4.00
2022-12-25T01:37:33.122Z,4.20
2022-12-25T01:38:09.643Z,3.90
2022-12-25T01:38:45.645Z,4.40
2022-12-25T01:39:22.261Z,4.60
2022-12-25T01:39:59.119Z,4.40
2022-12-25T01:40:36.249Z,4.50
2022-12-25T01:41:13.158Z,4.30
2022-12-25T01:41:48.457Z,4.60
2022-12-25T01:42:24.031Z,4.70
2022-12-25T01:42:57.487Z,4.60
2022-12-25T01:43:32.733Z,4.50
2022-12-25T01:44:28.580Z,4.90
2022-12-25T01:45:22.548Z,4.10
2022-12-25T01:45:56.282Z,3.80
2022-12-25T01:46:30.856Z,4.60
2022-12-25T01:47:06.098Z,4.10
2022-12-25T01:47:39.722Z,3.90
2022-12-25T01:48:18.295Z,4.40
2022-12-25T01:48:53.035Z,4.40
2022-12-25T01:49:26.753Z,4.30
2022-12-25T01:50:00.363Z,4.40
2022-12-25T01:50:36.331Z,4.40
2022-12-25T01:51:46.918Z,4.40
2022-12-25T01:52:25.541Z,4.00
2022-12-25T01:52:59.189Z,3.70
2022-12-25T01:53:33.237Z,3.80
2022-12-25T01:54:12.235Z,4.60
2022-12-25T01:54:53.277Z,4.10
2022-12-25T01:55:27.937Z,4.10
2022-12-25T01:56:08.430Z,4.60
2022-12-25T01:56:45.443Z,4.20
2022-12-25T01:57:29.121Z,4.00
2022-12-25T01:58:03.373Z,3.90
2022-12-25T01:58:37.157Z,3.90
2022-12-25T01:59:17.442Z,4.10
2022-12-25T01:59:51.083Z,4.00
2022-12-25T02:00:24.622Z,4.00
2022-12-25T02:00:58.228Z,4.30
2022-12-25T02:01:31.988Z,4.20
2022-12-25T02:02:06.135Z,3.90
2022-12-25T02:02:42.263Z,4.30
2022-12-25T02:03:16.113Z,3.80
2022-12-25T02:03:49.741Z,4.00
2022-12-25T02:04:41.218Z,4.60
2022-12-25T02:05:25.127Z,4.10
2022-12-25T02:06:00.769Z,4.20
2022-12-25T02:06:35.562Z,4.00
2022-12-25T02:07:19.575Z,4.20
2022-12-25T02:07:54.073Z,3.80
2022-12-25T02:08:27.838Z,4.20
2022-12-25T02:09:01.871Z,3.90
2022-12-25T02:09:35.711Z,3.90
2022-12-25T02:10:11.014Z,4.00
2022-12-25T02:10:45.012Z,4.10
2022-12-25T02:11:37.247Z,4.00
2022-12-25T02:12:24.468Z,3.50
2022-12-25T02:12:58.651Z,4.00
2022-12-25T02:13:32.275Z,4.10
2022-12-25T02:14:05.775Z,3.90
2022-12-25T02:14:39.399Z,4.20
2022-12-25T02:15:16.758Z,4.00
2022-12-25T02:15:59.136Z,4.10
2022-12-25T02:16:56.979Z,3.70
2022-12-25T02:17:35.865Z,3.80
2022-12-25T02:18:19.367Z,3.60
2022-12-25T02:18:57.832Z,3.50
2022-12-25T02:20:00.313Z,3.90
2022-12-25T02:20:52.752Z,3.70
2022-12-25T02:22:02.948Z,3.60
2022-12-25T02:22:45.605Z,4.00
2022-12-25T02:23:37.516Z,3.60
2022-12-25T02:24:32.866Z,3.60
2022-12-25T02:25:08.477Z,3.00
2022-12-25T02:26:10.077Z,3.60
2022-12-25T02:27:09.972Z,3.80
2022-12-25T02:28:32.005Z,3.30
2022-12-25T02:29:16.095Z,3.40
2022-12-25T02:30:09.003Z,3.70
2022-12-25T02:30:48.791Z,3.10
2022-12-25T02:31:48.225Z,3.60
2022-12-25T02:32:36.518Z,3.10
2022-12-25T02:33:34.461Z,3.50
2022-12-25T02:34:18.067Z,3.40
2022-12-25T02:35:01.140Z,3.30
2022-12-25T02:35:37.597Z,3.70
2022-12-25T02:36:17.171Z,3.60
2022-12-25T02:37:02.935Z,3.60
2022-12-25T02:37:51.996Z,3.80
2022-12-25T02:38:35.471Z,3.40
2022-12-25T02:39:35.694Z,3.80
2022-12-25T02:40:25.363Z,3.50
2022-12-25T02:41:06.453Z,4.10
2022-12-25T02:42:53.571Z,4.10
2022-12-25T02:44:02.389Z,4.60
2022-12-25T02:44:57.354Z,4.80
2022-12-25T02:45:58.779Z,5.60
2022-12-25T02:46:52.114Z,5.50
2022-12-25T02:47:45.319Z,5.50
2022-12-25T02:48:41.017Z,5.30
2022-12-25T02:51:59.551Z,4.50
2022-12-25T02:52:51.812Z,5.20
2022-12-25T02:53:44.623Z,4.90
2022-12-25T02:54:44.627Z,5.10
2022-12-25T02:55:44.301Z,4.80
2022-12-25T02:56:38.785Z,5.10
2022-12-25T02:57:33.908Z,5.00
2022-12-25T02:58:34.186Z,4.90
2022-12-25T02:59:27.042Z,4.90
2022-12-25T03:00:21.259Z,4.70
2022-12-25T03:01:27.510Z,4.80
2022-12-25T03:02:22.187Z,5.20
2022-12-25T03:03:18.024Z,4.70
2022-12-25T03:04:14.065Z,5.50
2022-12-25T03:05:09.483Z,5.30
2022-12-25T03:06:03.509Z,5.40
2022-12-25T03:06:47.018Z,4.70
2022-12-25T03:07:23.917Z,4.80
2022-12-25T03:08:02.775Z,4.60
2022-12-25T03:08:43.276Z,4.60
2022-12-25T03:09:48.435Z,4.80
2022-12-25T03:10:41.762Z,4.90
2022-12-25T03:11:33.546Z,5.00
2022-12-25T03:12:35.911Z,4.70
2022-12-25T03:13:18.394Z,4.40
2022-12-25T03:13:56.041Z,4.70
2022-12-25T03:14:48.501Z,4.90
2022-12-25T03:15:41.854Z,4.50
2022-12-25T03:16:34.164Z,4.20
2022-12-25T03:17:07.936Z,4.00
2022-12-25T03:17:41.989Z,4.50
2022-12-25T03:18:19.785Z,4.60
2022-12-25T03:18:56.296Z,4.50
2022-12-25T03:19:52.564Z,4.60
2022-12-25T03:20:44.818Z,4.50
2022-12-25T03:21:37.257Z,4.30
2022-12-25T03:22:36.219Z,4.40
2022-12-25T03:23:31.554Z,4.00
2022-12-25T03:24:24.483Z,5.00
2022-12-25T03:25:17.372Z,3.90
2022-12-25T03:26:09.663Z,4.60
2022-12-25T03:26:56.574Z,4.30
2022-12-25T03:27:33.699Z,4.50
2022-12-25T03:28:07.337Z,4.10
2022-12-25T03:28:40.755Z,4.40
2022-12-25T03:29:34.218Z,4.60
2022-12-25T03:30:27.258Z,4.10
2022-12-25T03:31:12.795Z,4.30
2022-12-25T03:31:54.013Z,4.40
2022-12-25T03:32:40.123Z,4.60
2022-12-25T03:33:46.168Z,4.30
2022-12-25T03:35:26.112Z,4.10
2022-12-25T03:36:22.088Z,4.20
2022-12-25T03:37:18.627Z,4.80
2022-12-25T03:38:31.962Z,4.60
2022-12-25T03:39:34.881Z,3.90
2022-12-25T03:40:57.639Z,4.30
2022-12-25T03:41:59.273Z,4.10
2022-12-25T03:43:01.120Z,5.80
2022-12-25T03:44:28.629Z,4.20
2022-12-25T03:46:00.779Z,3.60
2022-12-25T03:46:57.080Z,3.80
2022-12-25T03:48:00.916Z,4.00
2022-12-25T03:48:55.291Z,4.30
2022-12-25T03:49:58.084Z,4.10
2022-12-25T03:50:57.310Z,4.10
2022-12-25T03:51:54.846Z,4.10
2022-12-25T03:52:49.205Z,4.60
2022-12-25T03:54:02.138Z,4.60
2022-12-25T03:54:58.824Z,4.10
2022-12-25T03:55:59.546Z,4.50
2022-12-25T03:56:53.409Z,4.50
2022-12-25T03:57:45.653Z,4.30
2022-12-25T03:58:43.127Z,4.30
2022-12-25T03:59:38.582Z,4.30
2022-12-25T04:00:31.917Z,4.40
2022-12-25T04:01:24.290Z,4.20
2022-12-25T04:02:16.691Z,4.10
2022-12-25T04:03:09.114Z,4.50
2022-12-25T04:04:01.121Z,4.30
2022-12-25T04:04:53.894Z,5.00
2022-12-25T04:05:46.157Z,4.40
2022-12-25T04:06:38.196Z,4.50
2022-12-25T04:07:30.950Z,4.60
2022-12-25T04:08:23.454Z,4.30
2022-12-25T04:09:15.394Z,4.10
2022-12-25T04:10:07.944Z,4.00
2022-12-25T04:11:00.296Z,4.60
2022-12-25T04:11:57.316Z,3.90
2022-12-25T04:12:52.535Z,4.10
2022-12-25T04:13:44.811Z,4.30
2022-12-25T04:14:36.630Z,4.20
2022-12-25T04:15:32.680Z,4.60
2022-12-25T04:16:24.894Z,4.20
2022-12-25T04:17:17.063Z,4.10
2022-12-25T04:18:11.827Z,4.30
2022-12-25T04:19:03.893Z,4.20
2022-12-25T04:19:55.779Z,4.20
2022-12-25T04:20:47.726Z,4.90
2022-12-25T04:21:40.178Z,5.50
2022-12-25T04:22:32.797Z,4.90
2022-12-25T04:23:24.937Z,4.80
2022-12-25T04:24:17.096Z,4.70
2022-12-25T04:25:08.990Z,4.50
2022-12-25T04:26:01.111Z,4.60
2022-12-25T04:26:53.365Z,4.40
2022-12-25T04:27:45.650Z,4.60
2022-12-25T04:28:38.111Z,5.20
2022-12-25T04:29:30.335Z,5.00
2022-12-25T04:30:23.268Z,4.70
2022-12-25T04:31:20.003Z,5.00
2022-12-25T04:32:12.078Z,4.90
2022-12-25T04:33:04.311Z,4.80
2022-12-25T04:33:56.607Z,5.10
2022-12-25T04:34:48.838Z,5.00
2022-12-25T04:35:41.072Z,5.50
2022-12-25T04:36:14.653Z,5.60
2022-12-25T04:36:48.312Z,6.20
2022-12-25T04:37:21.952Z,6.40
2022-12-25T04:37:55.561Z,6.10
2022-12-25T04:38:29.070Z,7.10
2022-12-25T04:39:02.530Z,6.20
2022-12-25T04:39:36.150Z,6.50
2022-12-25T04:40:10.285Z,5.90
2022-12-25T04:40:43.787Z,6.10
2022-12-25T04:41:17.315Z,6.50
2022-12-25T04:41:50.875Z,6.60
2022-12-25T04:42:24.499Z,6.20
2022-12-25T04:42:58.061Z,6.10
2022-12-25T04:43:31.616Z,6.60
2022-12-25T04:44:09.576Z,5.90
2022-12-25T04:44:43.200Z,5.70
2022-12-25T04:45:16.818Z,5.70
2022-12-25T04:45:55.137Z,5.70
2022-12-25T04:46:31.128Z,5.50
2022-12-25T04:47:10.883Z,5.50
2022-12-25T04:47:45.300Z,5.50
2022-12-25T04:48:18.915Z,5.50
2022-12-25T04:48:55.416Z,5.30
2022-12-25T04:49:29.057Z,5.30
2022-12-25T04:50:02.723Z,5.20
2022-12-25T04:50:36.262Z,7.20
2022-12-25T04:51:11.861Z,7.40
2022-12-25T04:51:45.471Z,10.50
2022-12-25T04:52:18.994Z,12.40
2022-12-25T04:52:52.509Z,8.40
2022-12-25T04:53:26.015Z,7.40
2022-12-25T04:53:59.527Z,7.40
2022-12-25T04:54:33.139Z,5.10
2022-12-25T04:55:08.109Z,5.70
2022-12-25T04:55:41.769Z,5.00
2022-12-25T04:56:16.311Z,6.40
2022-12-25T04:56:49.880Z,5.30
2022-12-25T04:57:23.437Z,5.50
2022-12-25T04:57:56.914Z,10.70
2022-12-25T04:58:32.605Z,6.90
2022-12-25T04:59:06.486Z,8.80
2022-12-25T04:59:40.061Z,9.60
2022-12-25T05:00:14.033Z,6.70
2022-12-25T05:00:47.957Z,7.00
2022-12-25T05:01:21.627Z,8.70
2022-12-25T05:01:55.849Z,6.90
2022-12-25T05:02:33.443Z,5.50
2022-12-25T05:03:07.280Z,8.90
2022-12-25T05:03:41.623Z,11.50
2022-12-25T05:04:15.375Z,14.30
2022-12-25T05:04:48.891Z,13.30
2022-12-25T05:05:22.412Z,9.90
2022-12-25T05:05:56.349Z,11.60
2022-12-25T05:06:30.060Z,11.70
2022-12-25T05:07:03.705Z,7.20
2022-12-25T05:07:37.530Z,10.60
2022-12-25T05:08:11.676Z,7.90
2022-12-25T05:08:45.113Z,11.10
2022-12-25T05:09:18.642Z,4.80
2022-12-25T05:09:52.222Z,5.30
2022-12-25T05:10:26.445Z,4.80
2022-12-25T05:11:00.585Z,5.00
2022-12-25T05:11:34.239Z,4.40
2022-12-25T05:12:08.710Z,4.90
2022-12-25T05:12:42.336Z,4.60
2022-12-25T05:13:16.095Z,4.60
2022-12-25T05:13:49.975Z,4.50
2022-12-25T05:14:26.391Z,4.70
2022-12-25T05:15:01.532Z,4.70
2022-12-25T05:15:40.727Z,4.70
2022-12-25T05:16:17.776Z,4.70
2022-12-25T05:16:51.512Z,4.50
2022-12-25T05:17:27.983Z,5.00
2022-12-25T05:18:04.585Z,5.00
2022-12-25T05:18:38.174Z,4.90
2022-12-25T05:19:50.141Z,12.50
2022-12-25T05:20:26.974Z,12.80
2022-12-25T05:21:00.561Z,8.20
2022-12-25T05:21:34.055Z,9.10
2022-12-25T05:22:07.532Z,9.20
2022-12-25T05:22:42.839Z,11.20
2022-12-25T05:23:16.534Z,12.00
2022-12-25T05:23:51.944Z,9.20
2022-12-25T05:24:29.103Z,7.20
2022-12-25T05:25:10.429Z,5.10
2022-12-25T05:25:43.882Z,4.70
2022-12-25T05:26:23.512Z,5.20
2022-12-25T05:26:57.009Z,4.70
2022-12-25T05:27:30.433Z,4.70
2022-12-25T05:28:03.894Z,4.60
2022-12-25T05:28:37.308Z,4.40
2022-12-25T05:29:10.931Z,4.60
2022-12-25T05:29:44.459Z,5.40
2022-12-25T05:30:18.104Z,4.90
2022-12-25T05:30:51.907Z,7.90
2022-12-25T05:31:28.333Z,5.30
2022-12-25T05:32:02.328Z,7.20
2022-12-25T05:32:35.815Z,10.50
2022-12-25T05:33:09.535Z,6.90
2022-12-25T05:33:43.923Z,4.60
2022-12-25T05:34:17.349Z,5.50
2022-12-25T05:34:50.832Z,6.20
2022-12-25T05:35:24.245Z,4.10
2022-12-25T05:35:57.766Z,4.20
2022-12-25T05:36:31.151Z,4.50
2022-12-25T05:37:04.626Z,3.80
2022-12-25T05:37:38.032Z,3.40
2022-12-25T05:38:11.481Z,3.10
2022-12-25T05:38:45.291Z,3.40
2022-12-25T05:39:18.960Z,3.50
2022-12-25T05:39:52.538Z,3.20
2022-12-25T05:40:25.995Z,3.10
2022-12-25T05:40:59.411Z,3.30
2022-12-25T05:41:34.794Z,3.40
2022-12-25T05:42:08.421Z,3.00
2022-12-25T05:42:44.111Z,3.80
2022-12-25T05:43:19.598Z,3.20
2022-12-25T05:43:53.172Z,4.00
2022-12-25T05:44:26.586Z,4.70
2022-12-25T05:45:00.050Z,4.90
2022-12-25T05:45:33.671Z,3.60
2022-12-25T05:46:08.480Z,3.40
2022-12-25T05:46:45.155Z,3.70
2022-12-25T05:47:19.015Z,4.00
2022-12-25T05:47:53.583Z,3.70
2022-12-25T05:48:27.093Z,4.30
2022-12-25T05:49:00.559Z,4.00
2022-12-25T05:49:34.167Z,4.70
2022-12-25T05:50:08.647Z,3.40
2022-12-25T05:50:42.335Z,3.80
2022-12-25T05:51:16.214Z,3.80
2022-12-25T05:51:49.689Z,4.20
2022-12-25T05:52:23.604Z,4.60
2022-12-25T05:52:59.165Z,4.30
2022-12-25T05:53:38.506Z,4.20
2022-12-25T05:54:11.981Z,5.50
2022-12-25T05:54:45.560Z,7.30
2022-12-25T05:55:19.183Z,4.80
2022-12-25T05:55:52.689Z,4.20
2022-12-25T05:56:26.369Z,4.60
2022-12-25T05:56:59.983Z,4.50
2022-12-25T05:57:33.797Z,4.40
2022-12-25T05:58:09.339Z,4.20
2022-12-25T05:58:43.133Z,3.90
2022-12-25T05:59:16.825Z,4.40
2022-12-25T05:59:50.484Z,4.30
2022-12-25T06:00:24.132Z,4.20
2022-12-25T06:00:58.080Z,4.40
2022-12-25T06:01:31.941Z,4.80
2022-12-25T06:02:05.628Z,4.60
2022-12-25T06:02:39.506Z,5.10
2022-12-25T06:03:13.571Z,5.40
2022-12-25T06:03:47.706Z,6.30
2022-12-25T06:04:21.274Z,5.90
2022-12-25T06:04:54.695Z,6.40
2022-12-25T06:05:28.251Z,5.80
2022-12-25T06:06:03.598Z,6.00
2022-12-25T06:06:37.072Z,6.20
2022-12-25T06:07:10.515Z,6.80
2022-12-25T06:07:44.081Z,6.30
2022-12-25T06:08:17.545Z,6.60
2022-12-25T06:08:53.984Z,6.50
2022-12-25T06:09:27.494Z,6.30
2022-12-25T06:10:01.046Z,6.60
2022-12-25T06:10:34.590Z,5.50
2022-12-25T06:11:10.412Z,5.90
2022-12-25T06:11:43.892Z,5.70
2022-12-25T06:12:17.360Z,5.90
2022-12-25T06:12:50.858Z,5.90
2022-12-25T06:13:24.316Z,6.20
2022-12-25T06:13:57.950Z,5.90
2022-12-25T06:14:31.489Z,6.40
2022-12-25T06:15:06.223Z,6.60
2022-12-25T06:15:40.891Z,6.50
2022-12-25T06:16:14.548Z,6.30
2022-12-25T06:16:51.962Z,6.00
2022-12-25T06:17:27.111Z,5.50
2022-12-25T06:18:01.718Z,5.40
2022-12-25T06:18:37.028Z,5.50
2022-12-25T06:19:10.556Z,5.90
2022-12-25T06:19:44.208Z,5.80
2022-12-25T06:20:17.899Z,5.70
2022-12-25T06:20:51.452Z,5.40
2022-12-25T06:21:24.965Z,5.70
2022-12-25T06:21:58.453Z,6.20
2022-12-25T06:22:33.718Z,5.70
2022-12-25T06:23:07.434Z,6.60
2022-12-25T06:23:42.698Z,6.00
2022-12-25T06:24:21.192Z,6.00
2022-12-25T06:24:55.212Z,6.20
2022-12-25T06:25:28.755Z,6.40
2022-12-25T06:26:11.022Z,6.10
2022-12-25T06:26:44.498Z,6.30
2022-12-25T06:27:18.099Z,6.40
2022-12-25T06:27:51.743Z,6.60
2022-12-25T06:28:25.325Z,6.90
2022-12-25T06:28:58.799Z,7.10
2022-12-25T06:29:32.378Z,7.30
2022-12-25T06:30:06.713Z,7.10
2022-12-25T06:30:40.220Z,6.90
2022-12-25T06:31:17.475Z,7.10
2022-12-25T06:31:51.007Z,6.40
2022-12-25T06:32:24.604Z,6.70
2022-12-25T06:32:59.799Z,6.80
2022-12-25T06:33:33.579Z,7.60
2022-12-25T06:34:07.085Z,7.00
2022-12-25T06:34:40.678Z,7.00
2022-12-25T06:35:14.119Z,6.30
2022-12-25T06:35:47.680Z,6.90
2022-12-25T06:36:24.704Z,6.80
2022-12-25T06:36:58.156Z,6.80
2022-12-25T06:37:32.336Z,6.30
2022-12-25T06:38:05.928Z,6.70
2022-12-25T06:38:39.487Z,6.60
2022-12-25T06:39:12.960Z,6.20
2022-12-25T06:39:49.420Z,6.60
2022-12-25T06:40:22.857Z,6.30
2022-12-25T06:40:56.346Z,6.10
2022-12-25T06:41:30.626Z,6.00
2022-12-25T06:42:04.316Z,5.90
2022-12-25T06:42:37.653Z,6.00
2022-12-25T06:43:11.026Z,5.70
2022-12-25T06:43:49.724Z,5.60
2022-12-25T06:44:23.205Z,5.20
2022-12-25T06:44:56.576Z,5.50
2022-12-25T06:45:30.079Z,8.90
2022-12-25T06:46:12.048Z,9.70
2022-12-25T06:46:45.502Z,9.30
2022-12-25T06:47:18.909Z,9.40
2022-12-25T06:47:52.499Z,9.60
2022-12-25T06:48:25.986Z,8.10
2022-12-25T06:49:00.137Z,8.40
2022-12-25T06:49:33.659Z,8.30
2022-12-25T06:50:07.674Z,8.50
2022-12-25T06:50:44.471Z,8.50
2022-12-25T06:51:20.277Z,7.20
2022-12-25T06:51:53.873Z,8.60
2022-12-25T06:52:28.101Z,8.00
2022-12-25T06:53:01.673Z,9.70
2022-12-25T06:53:40.230Z,8.10
2022-12-25T06:54:14.325Z,6.80
2022-12-25T06:54:48.051Z,6.80
2022-12-25T06:55:21.604Z,6.90
2022-12-25T06:55:55.211Z,7.70
2022-12-25T06:56:29.194Z,9.90
2022-12-25T06:57:02.774Z,8.60
2022-12-25T06:57:37.381Z,8.20
2022-12-25T06:58:10.864Z,6.80
2022-12-25T06:58:45.827Z,6.50
2022-12-25T06:59:19.293Z,8.10
2022-12-25T06:59:55.345Z,9.20
2022-12-25T07:00:29.083Z,7.80
2022-12-25T07:01:15.581Z,7.30
2022-12-25T07:01:52.861Z,7.30
2022-12-25T07:02:26.781Z,7.50
2022-12-25T07:03:00.505Z,7.30
2022-12-25T07:03:34.370Z,7.40
2022-12-25T07:04:32.384Z,8.30
2022-12-25T07:05:06.433Z,6.40
2022-12-25T07:05:39.823Z,6.50
2022-12-25T07:06:13.297Z,6.80
2022-12-25T07:06:47.056Z,7.20
2022-12-25T07:07:23.797Z,7.30
2022-12-25T07:07:57.196Z,7.60
2022-12-25T07:08:31.023Z,7.20
2022-12-25T07:09:04.480Z,7.20
2022-12-25T07:09:42.644Z,7.80
2022-12-25T07:10:16.689Z,8.60
2022-12-25T07:10:50.259Z,6.60
2022-12-25T07:11:23.819Z,7.20
2022-12-25T07:12:08.778Z,7.80
2022-12-25T07:12:42.133Z,7.50
2022-12-25T07:13:16.046Z,7.70
2022-12-25T07:13:50.734Z,7.80
2022-12-25T07:14:24.769Z,5.90
2022-12-25T07:14:58.362Z,6.40
2022-12-25T07:15:31.786Z,6.70
2022-12-25T07:16:07.826Z,6.70
2022-12-25T07:16:41.476Z,6.60
2022-12-25T07:17:16.604Z,6.70
2022-12-25T07:17:49.930Z,6.00
2022-12-25T07:18:23.378Z,6.20
2022-12-25T07:18:56.766Z,6.40
2022-12-25T07:19:30.202Z,6.10
2022-12-25T07:20:03.927Z,6.20
2022-12-25T07:20:37.337Z,6.30
2022-12-25T07:21:14.427Z,14.30
2022-12-25T07:21:48.073Z,11.20
2022-12-25T07:22:21.552Z,9.50
2022-12-25T07:22:55.032Z,9.10
2022-12-25T07:23:28.397Z,8.70
2022-12-25T07:24:01.875Z,6.60
2022-12-25T07:24:35.304Z,6.00
2022-12-25T07:25:08.777Z,5.80
2022-12-25T07:25:42.185Z,5.90
2022-12-25T07:26:18.013Z,5.80
2022-12-25T07:26:52.334Z,6.00
2022-12-25T07:27:25.780Z,5.90
2022-12-25T07:27:59.163Z,5.60
2022-12-25T07:28:33.568Z,5.40
2022-12-25T07:29:07.086Z,5.10
2022-12-25T07:29:40.727Z,5.60
2022-12-25T07:30:14.434Z,5.90
2022-12-25T07:30:48.157Z,5.60
2022-12-25T07:31:21.708Z,5.70
2022-12-25T07:31:55.254Z,5.40
2022-12-25T07:32:32.340Z,5.20
2022-12-25T07:33:05.803Z,5.30
2022-12-25T07:33:39.593Z,5.10
2022-12-25T07:34:13.090Z,5.50
2022-12-25T07:34:46.445Z,5.10
2022-12-25T07:35:19.963Z,5.60
2022-12-25T07:35:53.400Z,5.50
2022-12-25T07:36:27.043Z,5.80
2022-12-25T07:37:00.527Z,5.30
2022-12-25T07:37:34.054Z,5.50
2022-12-25T07:38:07.564Z,5.20
2022-12-25T07:38:44.174Z,5.70
2022-12-25T07:39:18.025Z,6.70
2022-12-25T07:39:54.330Z,6.80
2022-12-25T07:40:27.804Z,6.40
2022-12-25T07:41:01.494Z,6.40
2022-12-25T07:41:34.922Z,5.90
2022-12-25T07:42:24.987Z,6.00
2022-12-25T07:43:42.029Z,5.20
2022-12-25T07:44:16.550Z,5.30
2022-12-25T07:44:50.174Z,6.30
2022-12-25T07:45:23.626Z,5.60
2022-12-25T07:46:01.390Z,5.60
2022-12-25T07:46:35.052Z,5.80
2022-12-25T07:47:08.673Z,5.90
2022-12-25T07:47:42.157Z,7.00
2022-12-25T07:48:17.105Z,6.60
2022-12-25T07:48:50.663Z,6.20
2022-12-25T07:49:24.123Z,6.10
2022-12-25T07:49:57.541Z,5.90
2022-12-25T07:50:31.148Z,6.80
2022-12-25T07:51:07.304Z,9.20
2022-12-25T07:51:40.873Z,10.70
2022-12-25T07:52:14.331Z,11.00
2022-12-25T07:52:47.971Z,10.80
2022-12-25T07:53:21.433Z,11.60
2022-12-25T07:53:54.889Z,11.60
2022-12-25T07:54:28.334Z,12.30
2022-12-25T07:55:01.813Z,12.00
2022-12-25T07:55:35.232Z,12.70
2022-12-25T07:56:15.452Z,12.40
2022-12-25T07:56:53.422Z,11.80
2022-12-25T07:57:26.981Z,12.20
2022-12-25T07:58:00.399Z,12.30
2022-12-25T07:58:34.651Z,12.30
2022-12-25T07:59:08.122Z,12.60
2022-12-25T07:59:41.612Z,12.40
2022-12-25T08:00:15.860Z,12.20
2022-12-25T08:00:49.376Z,12.90
2022-12-25T08:01:25.635Z,12.70
2022-12-25T08:01:59.364Z,13.10
2022-12-25T08:02:33.731Z,13.00
2022-12-25T08:03:07.727Z,12.90
2022-12-25T08:03:41.553Z,11.60
2022-12-25T08:04:15.129Z,11.70
2022-12-25T08:04:48.749Z,13.10
2022-12-25T08:05:22.200Z,12.10
2022-12-25T08:06:00.327Z,12.90
2022-12-25T08:06:35.413Z,12.10
2022-12-25T08:07:08.827Z,12.70
2022-12-25T08:07:42.216Z,13.00
2022-12-25T08:08:15.807Z,12.60
2022-12-25T08:08:49.229Z,12.60
2022-12-25T08:09:22.687Z,12.00
2022-12-25T08:09:56.053Z,12.10
2022-12-25T08:10:29.440Z,12.60
2022-12-25T08:11:02.995Z,11.80
2022-12-25T08:11:37.636Z,11.80
2022-12-25T08:12:11.032Z,11.30
2022-12-25T08:12:44.393Z,11.70
2022-12-25T08:13:27.063Z,11.00
2022-12-25T08:14:00.620Z,12.10
2022-12-25T08:14:34.124Z,11.70
2022-12-25T08:15:07.960Z,12.20
2022-12-25T08:15:42.154Z,12.40
2022-12-25T08:16:15.913Z,11.50
2022-12-25T08:16:49.372Z,11.70
2022-12-25T08:17:22.977Z,12.20
2022-12-25T08:17:56.562Z,12.00
2022-12-25T08:18:31.169Z,11.60
2022-12-25T08:19:04.576Z,11.80
2022-12-25T08:19:38.014Z,11.20
2022-12-25T08:20:11.900Z,11.50
2022-12-25T08:20:45.303Z,11.70
2022-12-25T08:21:18.723Z,11.90
2022-12-25T08:21:52.109Z,10.70
2022-12-25T08:22:25.480Z,11.30
2022-12-25T08:22:58.858Z,11.00
2022-12-25T08:23:35.431Z,11.20
2022-12-25T08:24:08.893Z,11.00
2022-12-25T08:24:42.424Z,10.80
2022-12-25T08:25:16.221Z,10.70
2022-12-25T08:25:49.799Z,10.60
2022-12-25T08:26:24.162Z,10.90
2022-12-25T08:26:57.546Z,10.70
2022-12-25T08:27:31.013Z,10.60
2022-12-25T08:28:04.730Z,10.50
2022-12-25T08:28:39.584Z,11.20
2022-12-25T08:29:14.130Z,10.40
2022-12-25T08:29:47.620Z,10.50
2022-12-25T08:30:21.165Z,10.50
2022-12-25T08:30:54.796Z,10.60
2022-12-25T08:31:30.473Z,9.90
2022-12-25T08:32:04.227Z,10.30
2022-12-25T08:32:37.580Z,10.40
2022-12-25T08:33:10.946Z,10.40
2022-12-25T08:33:44.945Z,10.10
2022-12-25T08:34:19.540Z,10.40
2022-12-25T08:34:52.939Z,9.70
2022-12-25T08:35:26.495Z,9.60
2022-12-25T08:36:06.333Z,9.70
2022-12-25T08:36:41.727Z,9.70
2022-12-25T08:37:15.641Z,10.10
2022-12-25T08:37:49.275Z,9.70
2022-12-25T08:38:22.643Z,10.20
2022-12-25T08:39:02.747Z,9.60
2022-12-25T08:39:36.688Z,9.30